createdAt,value
2018-07-14T00:01:30.904Z,63.20
2018-07-14T00:04:04.724Z,63.10
2018-07-14T00:09:11.454Z,63.30
2018-07-14T00:11:45.230Z,63.20
2018-07-14T00:14:19.132Z,63.20
2018-07-14T00:16:52.959Z,63.10
2018-07-14T00:19:26.880Z,62.90
2018-07-14T00:22:00.676Z,63.10
2018-07-14T00:27:08.585Z,62.80
2018-07-14T00:29:42.460Z,62.50
2018-07-14T00:32:17.167Z,62.40
2018-07-14T00:34:50.344Z,62.60
2018-07-14T00:37:24.377Z,62.60
2018-07-14T00:39:58.144Z,62.70
2018-07-14T00:45:05.415Z,62.70
2018-07-14T00:47:39.056Z,62.80
2018-07-14T00:50:13.542Z,62.60
2018-07-14T00:52:47.399Z,62.60
2018-07-14T00:55:21.071Z,62.60
2018-07-14T00:57:54.998Z,62.30
2018-07-14T01:00:28.903Z,62.30
2018-07-14T01:03:03.619Z,62.30
2018-07-14T01:05:37.754Z,62.20
2018-07-14T01:08:11.432Z,62.10
2018-07-14T01:10:47.497Z,62.10
2018-07-14T01:15:53.531Z,62.00
2018-07-14T01:18:27.909Z,61.90
2018-07-14T01:21:01.774Z,62.00
2018-07-14T01:23:35.536Z,61.90
2018-07-14T01:26:09.529Z,62.00
2018-07-14T01:28:43.236Z,61.70
2018-07-14T01:31:17.346Z,61.60
2018-07-14T01:33:51.093Z,61.70
2018-07-14T01:36:25.028Z,62.40
2018-07-14T01:38:58.827Z,61.20
2018-07-14T01:41:32.500Z,62.00
2018-07-14T01:44:06.034Z,60.80
2018-07-14T01:46:40.003Z,60.90
2018-07-14T01:49:26.714Z,60.90
2018-07-14T01:52:01.009Z,60.70
2018-07-14T01:54:34.259Z,60.20
2018-07-14T01:57:07.895Z,60.30
2018-07-14T02:02:13.969Z,60.40
2018-07-14T02:04:48.420Z,61.10
2018-07-14T02:07:22.442Z,60.30
2018-07-14T02:09:56.417Z,60.20
2018-07-14T02:12:30.552Z,60.30
2018-07-14T02:15:05.066Z,60.30
2018-07-14T02:30:48.825Z,60.00
2018-07-14T02:33:22.618Z,60.00
2018-07-14T02:35:56.848Z,61.20
2018-07-14T02:38:30.405Z,61.60
2018-07-14T02:41:10.912Z,61.40
2018-07-14T02:43:49.821Z,60.70
2018-07-14T02:46:23.726Z,60.00
2018-07-14T02:48:58.489Z,59.40
2018-07-14T02:51:39.617Z,59.30
2018-07-14T02:54:13.328Z,59.00
2018-07-14T02:56:47.896Z,58.90
2018-07-14T02:59:22.183Z,58.60
2018-07-14T03:01:56.953Z,58.50
2018-07-14T03:09:56.890Z,57.80
2018-07-14T03:12:31.065Z,57.70
2018-07-14T03:15:05.075Z,57.30
2018-07-14T03:17:38.732Z,57.90
2018-07-14T03:20:12.756Z,57.20
2018-07-14T03:22:48.094Z,57.10
2018-07-14T03:25:21.971Z,56.50
2018-07-14T03:28:03.572Z,56.30
2018-07-14T03:33:09.695Z,55.60
2018-07-14T03:35:43.626Z,55.50
2018-07-14T03:38:17.532Z,55.60
2018-07-14T03:40:52.226Z,55.40
2018-07-14T03:43:30.557Z,55.10
2018-07-14T03:46:07.312Z,54.80
2018-07-14T03:49:12.795Z,54.60
2018-07-14T03:51:47.759Z,54.40
2018-07-14T03:54:39.201Z,54.10
2018-07-14T03:57:13.236Z,54.00
2018-07-14T03:59:47.116Z,54.00
2018-07-14T04:02:20.792Z,53.70
2018-07-14T04:05:01.647Z,53.20
2018-07-14T04:10:15.841Z,52.60
2018-07-14T04:12:49.435Z,52.70
2018-07-14T04:15:23.054Z,52.60
2018-07-14T04:18:05.903Z,52.20
2018-07-14T04:20:40.075Z,52.00
2018-07-14T04:23:13.767Z,51.90
2018-07-14T04:25:47.571Z,51.60
2018-07-14T04:28:21.610Z,51.20
2018-07-14T04:30:55.647Z,51.20
2018-07-14T04:33:29.258Z,51.00
2018-07-14T04:36:03.039Z,50.90
2018-07-14T04:38:37.405Z,50.80
2018-07-14T04:41:11.084Z,50.90
2018-07-14T04:43:45.658Z,51.00
2018-07-14T04:46:20.203Z,51.00
2018-07-14T04:48:53.900Z,51.10
2018-07-14T04:51:28.185Z,51.20
2018-07-14T04:54:02.305Z,51.40
2018-07-14T04:56:36.292Z,51.10
2018-07-14T04:59:10.420Z,51.20
2018-07-14T05:01:44.642Z,51.20
2018-07-14T05:04:19.340Z,51.20
2018-07-14T05:06:53.681Z,51.70
2018-07-14T05:09:28.334Z,51.70
2018-07-14T05:12:02.046Z,51.70
2018-07-14T05:14:36.822Z,51.50
2018-07-14T05:19:43.537Z,51.90
2018-07-14T05:22:18.530Z,51.40
2018-07-14T05:24:52.157Z,51.40
2018-07-14T05:27:25.483Z,51.30
2018-07-14T05:29:59.398Z,51.50
2018-07-14T05:32:32.919Z,51.50
2018-07-14T05:35:06.967Z,51.20
2018-07-14T05:37:40.984Z,51.40
2018-07-14T05:40:15.232Z,51.10
2018-07-14T05:42:49.334Z,51.40
2018-07-14T05:45:23.362Z,51.40
2018-07-14T05:47:57.381Z,51.20
2018-07-14T05:53:04.086Z,51.20
2018-07-14T05:55:38.165Z,51.00
2018-07-14T05:58:12.185Z,51.10
2018-07-14T06:00:45.583Z,50.90
2018-07-14T06:03:19.603Z,50.80
2018-07-14T06:05:53.587Z,50.90
2018-07-14T06:08:27.762Z,50.80
2018-07-14T06:11:02.191Z,50.70
2018-07-14T06:13:36.463Z,50.60
2018-07-14T06:16:10.412Z,50.90
2018-07-14T06:18:45.167Z,51.20
2018-07-14T06:21:19.186Z,50.30
2018-07-14T06:23:53.918Z,50.40
2018-07-14T06:26:27.938Z,49.80
2018-07-14T06:29:01.957Z,49.40
2018-07-14T06:31:35.463Z,49.50
2018-07-14T06:34:09.597Z,49.10
2018-07-14T06:39:16.567Z,50.30
2018-07-14T06:44:22.785Z,49.60
2018-07-14T06:46:58.082Z,50.10
2018-07-14T06:49:32.284Z,50.20
2018-07-14T06:52:06.362Z,49.60
2018-07-14T06:54:40.179Z,49.80
2018-07-14T06:59:47.450Z,51.10
2018-07-14T07:02:22.439Z,50.80
2018-07-14T07:04:56.869Z,50.60
2018-07-14T07:07:30.570Z,51.40
2018-07-14T07:10:04.579Z,50.90
2018-07-14T07:15:14.792Z,51.70
2018-07-14T07:17:48.873Z,51.10
2018-07-14T07:20:22.873Z,50.80
2018-07-14T07:25:28.974Z,51.10
2018-07-14T07:28:02.263Z,51.30
2018-07-14T07:30:36.448Z,51.20
2018-07-14T07:33:11.244Z,51.00
2018-07-14T07:35:44.664Z,51.00
2018-07-14T07:38:18.911Z,51.20
2018-07-14T07:40:52.632Z,51.10
2018-07-14T07:43:27.357Z,51.40
2018-07-14T07:48:33.608Z,51.30
2018-07-14T07:51:07.521Z,51.40
2018-07-14T07:56:14.182Z,50.90
2018-07-14T07:58:49.536Z,50.90
2018-07-14T08:01:23.461Z,50.80
2018-07-14T08:03:58.011Z,50.60
2018-07-14T08:14:12.766Z,49.90
2018-07-14T08:16:46.980Z,49.90
2018-07-14T08:19:21.222Z,49.90
2018-07-14T08:21:54.860Z,49.80
2018-07-14T08:29:34.388Z,50.80
2018-07-14T08:32:08.155Z,50.00
2018-07-14T08:37:15.561Z,49.70
2018-07-14T08:39:50.745Z,49.80
2018-07-14T08:42:24.795Z,49.60
2018-07-14T08:47:31.215Z,49.30
2018-07-14T08:50:05.610Z,49.40
2018-07-14T08:52:39.954Z,49.10
2018-07-14T08:55:14.004Z,49.30
2018-07-14T08:57:47.694Z,49.30
2018-07-14T09:00:21.296Z,49.30
2018-07-14T09:02:55.564Z,49.50
2018-07-14T09:08:01.958Z,49.90
2018-07-14T09:10:35.689Z,49.70
2018-07-14T09:13:10.661Z,49.70
2018-07-14T09:18:17.403Z,49.80
2018-07-14T09:20:51.826Z,50.00
2018-07-14T09:56:07.540Z,50.80
2018-07-14T09:58:41.351Z,50.30
2018-07-14T10:01:14.921Z,53.50
2018-07-14T10:03:49.189Z,54.00
2018-07-14T10:06:23.440Z,54.00
2018-07-14T10:08:57.155Z,54.10
2018-07-14T10:11:31.201Z,54.10
2018-07-14T10:16:40.362Z,54.00
2018-07-14T10:19:14.696Z,54.10
2018-07-14T10:21:48.336Z,54.30
2018-07-14T10:24:21.834Z,54.60
2018-07-14T10:26:56.946Z,54.60
2018-07-14T10:29:31.312Z,55.00
2018-07-14T10:32:05.429Z,55.20
2018-07-14T10:34:39.404Z,55.60
2018-07-14T10:37:13.440Z,55.80
2018-07-14T10:42:19.340Z,55.90
2018-07-14T10:44:53.207Z,55.90
2018-07-14T10:47:27.177Z,56.00
2018-07-14T10:50:01.292Z,56.00
2018-07-14T10:52:37.312Z,56.00
2018-07-14T10:57:43.704Z,56.30
2018-07-14T11:00:19.135Z,56.40
2018-07-14T11:02:52.814Z,56.60
2018-07-14T11:05:26.904Z,56.70
2018-07-14T11:08:02.407Z,56.80
2018-07-14T11:10:36.227Z,56.90
2018-07-14T11:13:09.545Z,57.10
2018-07-14T11:15:43.695Z,57.20
2018-07-14T11:18:18.856Z,57.50
2018-07-14T11:20:52.892Z,57.60
2018-07-14T11:23:26.474Z,57.50
2018-07-14T11:28:33.205Z,57.90
2018-07-14T11:31:08.200Z,58.10
2018-07-14T11:33:42.120Z,58.10
2018-07-14T11:36:15.816Z,58.00
2018-07-14T11:41:22.786Z,59.00
2018-07-14T11:43:56.660Z,58.70
2018-07-14T11:46:30.693Z,58.90
2018-07-14T11:49:04.359Z,59.10
2018-07-14T11:51:38.042Z,59.40
2018-07-14T11:56:44.780Z,59.80
2018-07-14T11:59:18.628Z,60.00
2018-07-14T12:01:52.463Z,60.30
2018-07-14T12:04:26.321Z,60.20
2018-07-14T12:07:00.565Z,60.30
2018-07-14T12:09:34.287Z,60.50
2018-07-14T12:12:07.652Z,60.70
2018-07-14T12:14:41.747Z,60.80
2018-07-14T12:17:15.900Z,60.90
2018-07-14T12:36:08.521Z,60.70
2018-07-14T12:38:42.449Z,60.20
2018-07-14T12:41:16.736Z,61.20
2018-07-14T12:43:50.622Z,61.60
2018-07-14T12:46:24.795Z,61.70
2018-07-14T12:48:58.764Z,61.80
2018-07-14T12:51:33.358Z,61.60
2018-07-14T12:54:07.304Z,61.50
2018-07-14T12:56:41.331Z,60.70
2018-07-14T12:59:15.157Z,59.60
2018-07-14T13:01:49.620Z,59.20
2018-07-14T13:04:23.345Z,58.70
2018-07-14T13:06:57.699Z,59.10
2018-07-14T13:09:31.356Z,58.60
2018-07-14T13:12:05.807Z,58.50
2018-07-14T13:14:39.969Z,58.10
2018-07-14T13:17:14.008Z,58.00
2018-07-14T13:19:48.160Z,57.90
2018-07-14T13:22:23.535Z,57.90
2018-07-14T13:24:57.672Z,57.90
2018-07-14T13:27:32.626Z,58.00
2018-07-14T13:30:07.940Z,57.80
2018-07-14T13:32:41.736Z,57.70
2018-07-14T13:35:16.998Z,57.80
2018-07-14T13:37:51.029Z,57.90
2018-07-14T13:40:25.154Z,58.00
2018-07-14T13:42:58.895Z,58.20
2018-07-14T13:45:33.542Z,58.30
2018-07-14T13:48:07.642Z,58.60
2018-07-14T13:50:41.303Z,58.60
2018-07-14T13:53:15.296Z,58.70
2018-07-14T13:55:50.317Z,58.80
2018-07-14T13:58:24.392Z,58.50
2018-07-14T14:00:58.415Z,58.10
2018-07-14T14:03:32.761Z,57.60
2018-07-14T14:06:07.793Z,57.50
2018-07-14T14:08:41.827Z,57.30
2018-07-14T14:11:15.981Z,57.30
2018-07-14T14:13:51.022Z,57.20
2018-07-14T14:16:24.951Z,57.20
2018-07-14T14:19:00.033Z,57.40
2018-07-14T14:24:09.957Z,57.50
2018-07-14T14:26:43.783Z,57.30
2018-07-14T14:29:17.561Z,57.20
2018-07-14T14:31:51.894Z,57.00
2018-07-14T14:34:25.814Z,57.10
2018-07-14T14:37:00.227Z,57.10
2018-07-14T14:39:35.064Z,57.30
2018-07-14T14:42:09.141Z,57.40
2018-07-14T14:44:43.183Z,57.40
2018-07-14T14:47:16.912Z,57.30
2018-07-14T14:49:51.252Z,57.30
2018-07-14T14:52:25.266Z,57.30
2018-07-14T14:54:59.589Z,57.40
2018-07-14T14:57:33.725Z,57.50
2018-07-14T15:00:07.887Z,57.50
2018-07-14T15:02:42.058Z,57.60
2018-07-14T15:05:16.171Z,57.10
2018-07-14T15:10:22.830Z,56.80
2018-07-14T15:12:56.951Z,56.90
2018-07-14T15:15:30.742Z,56.80
2018-07-14T15:18:04.482Z,56.70
2018-07-14T15:20:38.520Z,56.90
2018-07-14T15:23:12.112Z,57.10
2018-07-14T15:25:48.896Z,57.20
2018-07-14T15:28:23.435Z,57.20
2018-07-14T15:30:57.092Z,57.30
2018-07-14T15:36:03.464Z,57.20
2018-07-14T15:41:10.118Z,57.10
2018-07-14T15:43:44.277Z,57.00
2018-07-14T15:46:18.543Z,57.10
2018-07-14T15:48:52.364Z,57.10
2018-07-14T15:51:26.819Z,57.00
2018-07-14T15:54:00.719Z,56.80
2018-07-14T15:56:34.559Z,56.80
2018-07-14T15:59:08.632Z,56.80
2018-07-14T16:04:14.503Z,57.50
2018-07-14T16:06:48.694Z,56.90
2018-07-14T16:09:22.506Z,56.90
2018-07-14T16:11:56.489Z,57.00
2018-07-14T16:14:30.012Z,57.10
2018-07-14T16:17:04.336Z,57.70
2018-07-14T16:19:38.197Z,57.10
2018-07-14T16:22:12.680Z,57.30
2018-07-14T16:24:46.787Z,57.30
2018-07-14T16:27:22.385Z,57.50
2018-07-14T16:29:56.482Z,57.80
2018-07-14T16:35:04.675Z,57.20
2018-07-14T16:37:38.999Z,57.20
2018-07-14T16:40:12.816Z,57.30
2018-07-14T16:45:19.096Z,57.50
2018-07-14T16:47:53.018Z,57.50
2018-07-14T16:50:27.010Z,57.50
2018-07-14T16:53:01.324Z,57.40
2018-07-14T16:55:35.802Z,57.30
2018-07-14T16:58:09.401Z,57.20
2018-07-14T17:00:43.518Z,57.30
2018-07-14T17:03:17.309Z,57.30
2018-07-14T17:05:51.371Z,57.20
2018-07-14T17:08:25.366Z,57.10
2018-07-14T17:11:01.040Z,57.00
2018-07-14T17:13:35.138Z,57.10
2018-07-14T17:16:09.204Z,57.00
2018-07-14T17:23:48.631Z,56.70
2018-07-14T17:26:23.149Z,56.80
2018-07-14T17:28:58.192Z,56.80
2018-07-14T17:31:32.332Z,56.80
2018-07-14T17:36:45.238Z,56.80
2018-07-14T17:39:57.503Z,56.90
2018-07-14T17:42:31.763Z,56.70
2018-07-14T17:45:06.074Z,56.70
2018-07-14T17:47:40.311Z,56.80
2018-07-14T17:50:14.194Z,56.90
2018-07-14T17:52:48.042Z,57.20
2018-07-14T17:55:22.399Z,57.00
2018-07-14T17:57:56.401Z,57.20
2018-07-14T18:00:30.167Z,57.20
2018-07-14T18:03:04.201Z,57.20
2018-07-14T18:05:38.861Z,57.20
2018-07-14T18:08:13.049Z,57.10
2018-07-14T18:10:46.681Z,57.10
2018-07-14T18:13:20.241Z,57.10
2018-07-14T18:15:54.391Z,57.10
2018-07-14T18:18:28.159Z,57.10
2018-07-14T18:21:02.153Z,57.20
2018-07-14T18:23:36.020Z,57.10
2018-07-14T18:26:10.142Z,57.20
2018-07-14T18:28:44.362Z,57.20
2018-07-14T18:31:19.479Z,57.20
2018-07-14T18:33:53.321Z,57.30
2018-07-14T18:36:27.526Z,57.40
2018-07-14T18:39:01.468Z,57.50
2018-07-14T18:41:35.329Z,57.70
2018-07-14T18:44:09.966Z,57.70
2018-07-14T18:46:43.890Z,57.90
2018-07-14T18:51:51.071Z,57.90
2018-07-14T18:54:24.487Z,58.00
2018-07-14T18:56:58.269Z,58.10
2018-07-14T18:59:32.388Z,58.10
2018-07-14T19:02:06.184Z,58.10
2018-07-14T19:04:39.991Z,58.00
2018-07-14T19:07:13.949Z,58.00
2018-07-14T19:09:47.926Z,58.10
2018-07-14T19:12:21.326Z,58.20
2018-07-14T19:14:55.809Z,58.40
2018-07-14T19:17:29.734Z,58.70
2018-07-14T19:20:03.557Z,58.80
2018-07-14T19:22:38.748Z,58.90
2018-07-14T19:25:12.233Z,59.20
2018-07-14T19:27:46.219Z,59.70
2018-07-14T19:30:19.921Z,60.20
2018-07-14T19:35:27.228Z,60.60
2018-07-14T19:38:00.769Z,61.00
2018-07-14T19:40:39.174Z,61.00
2018-07-14T19:45:45.361Z,60.90
2018-07-14T19:48:19.282Z,61.00
2018-07-14T19:50:53.915Z,61.20
2018-07-14T19:53:27.798Z,61.40
2018-07-14T19:56:02.916Z,61.50
2018-07-14T19:58:37.089Z,61.80
2018-07-14T20:01:11.007Z,62.10
2018-07-14T20:03:45.018Z,62.30
2018-07-14T20:06:18.685Z,62.50
2018-07-14T20:08:52.750Z,62.70
2018-07-14T20:11:27.671Z,62.80
2018-07-14T20:14:01.480Z,63.00
2018-07-14T20:16:35.400Z,63.00
2018-07-14T20:19:09.129Z,63.10
2018-07-14T20:21:42.654Z,63.00
2018-07-14T20:24:17.474Z,62.90
2018-07-14T20:26:51.138Z,62.70
2018-07-14T20:29:24.625Z,62.60
2018-07-14T20:31:58.361Z,62.60
2018-07-14T20:34:36.095Z,62.60
2018-07-14T20:37:09.891Z,62.40
2018-07-14T20:39:44.038Z,62.20
2018-07-14T20:42:18.039Z,62.10
2018-07-14T20:44:52.432Z,62.10
2018-07-14T20:47:26.172Z,62.00
2018-07-14T20:50:00.300Z,62.10
2018-07-14T20:52:34.007Z,62.00
2018-07-14T20:55:08.288Z,61.90
2018-07-14T20:57:41.717Z,61.80
2018-07-14T21:02:48.372Z,61.70
2018-07-14T21:05:22.300Z,61.40
2018-07-14T21:07:56.939Z,61.00
2018-07-14T21:10:31.769Z,60.80
2018-07-14T21:13:05.611Z,60.80
2018-07-14T21:15:39.617Z,60.80
2018-07-14T21:18:13.390Z,61.00
2018-07-14T21:20:46.752Z,61.10
2018-07-14T21:23:21.734Z,61.10
2018-07-14T21:25:56.145Z,61.30
2018-07-14T21:28:30.049Z,61.20
2018-07-14T21:31:04.006Z,61.40
2018-07-14T21:33:38.844Z,61.90
2018-07-14T21:36:13.964Z,62.00
2018-07-14T21:41:20.355Z,63.30
2018-07-14T21:43:53.791Z,63.50
2018-07-14T21:49:00.148Z,63.50
2018-07-14T21:51:33.927Z,63.60
2018-07-14T21:54:08.025Z,63.50
2018-07-14T21:56:42.164Z,63.50
2018-07-14T21:59:16.109Z,63.40
2018-07-14T22:01:55.040Z,63.40
2018-07-14T22:04:29.088Z,63.40
2018-07-14T22:07:03.540Z,63.40
2018-07-14T22:09:37.060Z,63.40
2018-07-14T22:14:43.188Z,63.40
2018-07-14T22:17:16.520Z,63.50
2018-07-14T22:19:50.292Z,63.50
2018-07-14T22:22:23.959Z,63.60
2018-07-14T22:27:32.021Z,63.70
2018-07-14T22:30:05.893Z,63.80
2018-07-14T22:32:39.091Z,63.90
2018-07-14T22:35:13.253Z,64.00
2018-07-14T22:37:48.663Z,64.10
2018-07-14T22:40:22.636Z,64.00
2018-07-14T22:42:56.500Z,63.90
2018-07-14T22:45:30.577Z,63.90
2018-07-14T22:48:04.510Z,64.70
2018-07-14T22:50:38.085Z,63.80
2018-07-14T22:53:12.323Z,63.80
2018-07-14T22:55:46.555Z,63.70
2018-07-14T22:58:20.071Z,63.90
2018-07-14T23:00:53.703Z,64.10
2018-07-14T23:03:27.717Z,64.30
2018-07-14T23:06:01.222Z,64.80
2018-07-14T23:08:34.924Z,65.00
2018-07-14T23:11:08.944Z,65.00
2018-07-14T23:13:42.590Z,64.80
2018-07-14T23:18:48.726Z,64.30
2018-07-14T23:21:23.318Z,64.20
2018-07-14T23:23:56.938Z,64.10
2018-07-14T23:26:30.851Z,63.80
2018-07-14T23:29:06.282Z,63.50
2018-07-14T23:34:12.721Z,64.00
2018-07-14T23:36:46.848Z,63.20
2018-07-14T23:58:41.719Z,63.40
